This is the latest recevied weather packets stored in our database for station/object DH5WR-10. If no packets are shown the sender has not sent any weather packets the latest 10 day(s).
| Time | Temp. | Humidity | Pressure | Rain* | Wind** | Luminosity | Snow |
|---|---|---|---|---|---|---|---|
| 1777880239 | 18.33° C | 45% | 1016.6 hPa | - | - | - | - |
| 1777879339 | 18.33° C | 48% | 1016.6 hPa | - | - | - | - |
| 1777878439 | 18.33° C | 44% | 1016.6 hPa | - | - | - | - |
| 1777877539 | 18.33° C | 47% | 1016.6 hPa | - | - | - | - |
| 1777876639 | 17.22° C | 48% | 1016.6 hPa | - | - | - | - |
| 1777875739 | 17.22° C | 48% | 1016.5 hPa | - | - | - | - |
| 1777874838 | 16.11° C | 50% | 1016.5 hPa | - | - | - | - |
| 1777873938 | 16.11° C | 52% | 1016.6 hPa | - | - | - | - |
| 1777873037 | 14.44° C | 56% | 1016.6 hPa | - | - | - | - |
| 1777871257 | 11.67° C | 67% | 1016.5 hPa | - | - | - | - |
| 1777870352 | 11.11° C | 68% | 1016.6 hPa | - | - | - | - |
| 1777867652 | 10° C | 68% | 1016.7 hPa | - | - | - | - |
| 1777865851 | 10.56° C | 68% | 1016.7 hPa | - | - | - | - |
| 1777864951 | 11.11° C | 65% | 1016.6 hPa | - | - | - | - |
| 1777863151 | 11.11° C | 65% | 1016.7 hPa | - | - | - | - |
| 1777859550 | 12.22° C | 58% | 1016.7 hPa | - | - | - | - |
| 1777858650 | 12.22° C | 56% | 1016.8 hPa | - | - | - | - |
| 1777857750 | 12.22° C | 59% | 1016.6 hPa | - | - | - | - |
| 1777856850 | 11.67° C | 59% | 1016.6 hPa | - | - | - | - |
| 1777855950 | 12.22° C | 59% | 1016.7 hPa | - | - | - | - |
| 1777854149 | 12.78° C | 55% | 1017 hPa | - | - | - | - |
| 1777852349 | 12.78° C | 55% | 1017 hPa | - | - | - | - |
| 1777851449 | 13.33° C | 55% | 1017 hPa | - | - | - | - |
| 1777848748 | 12.78° C | 56% | 1017.2 hPa | - | - | - | - |
| 1777847848 | 13.33° C | 54% | 1017.2 hPa | - | - | - | - |
* Rain since midnight (hover to see other rain measurements)
** Current wind speed in m/s (hover to see current wind gust speed)